createdAt,value
2018-09-26T00:00:39.700Z,0.80
2018-09-26T00:03:15.489Z,1.00
2018-09-26T00:05:43.979Z,1.00
2018-09-26T00:08:12.519Z,1.27
2018-09-26T00:10:41.074Z,0.90
2018-09-26T00:13:09.566Z,1.10
2018-09-26T00:15:38.031Z,0.87
2018-09-26T00:18:06.816Z,1.00
2018-09-26T00:20:35.631Z,1.20
2018-09-26T00:23:04.098Z,0.87
2018-09-26T00:25:32.642Z,0.93
2018-09-26T00:28:01.075Z,1.10
2018-09-26T00:30:29.701Z,1.00
2018-09-26T00:32:58.237Z,1.07
2018-09-26T00:35:26.665Z,1.03
2018-09-26T00:37:55.434Z,0.90
2018-09-26T00:40:23.923Z,0.87
2018-09-26T00:42:52.454Z,0.80
2018-09-26T00:45:20.971Z,1.10
2018-09-26T00:47:49.448Z,0.97
2018-09-26T00:50:17.868Z,0.90
2018-09-26T00:52:46.330Z,1.30
2018-09-26T00:55:14.775Z,1.00
2018-09-26T00:57:43.218Z,0.97
2018-09-26T01:00:11.670Z,1.33
2018-09-26T01:02:40.112Z,0.83
2018-09-26T01:05:08.592Z,1.20
2018-09-26T01:07:37.079Z,1.00
2018-09-26T01:10:05.615Z,1.03
2018-09-26T01:12:34.167Z,1.00
2018-09-26T01:15:02.571Z,1.00
2018-09-26T01:17:31.103Z,0.90
2018-09-26T01:19:59.631Z,0.93
2018-09-26T01:22:28.110Z,0.90
2018-09-26T01:24:56.542Z,1.33
2018-09-26T01:27:25.054Z,1.23
2018-09-26T01:29:53.494Z,0.90
2018-09-26T01:32:22.202Z,1.13
2018-09-26T01:34:50.788Z,0.93
2018-09-26T01:37:19.277Z,0.83
2018-09-26T01:39:47.823Z,0.80
2018-09-26T01:42:16.355Z,1.47
2018-09-26T01:44:44.798Z,0.90
2018-09-26T01:47:13.316Z,1.03
2018-09-26T01:49:41.829Z,1.10
2018-09-26T01:52:10.445Z,0.97
2018-09-26T01:54:38.882Z,1.13
2018-09-26T01:57:07.478Z,1.10
2018-09-26T01:59:36.086Z,1.53
2018-09-26T02:02:04.778Z,0.97
2018-09-26T02:04:33.212Z,1.20
2018-09-26T02:07:01.798Z,0.87
2018-09-26T02:09:30.332Z,1.30
2018-09-26T02:11:58.912Z,1.30
2018-09-26T02:14:27.541Z,1.20
2018-09-26T02:16:55.984Z,1.33
2018-09-26T02:19:24.457Z,1.27
2018-09-26T02:21:52.879Z,1.40
2018-09-26T02:24:21.326Z,1.33
2018-09-26T02:26:49.862Z,1.13
2018-09-26T02:29:18.329Z,1.17
2018-09-26T02:31:46.858Z,1.20
2018-09-26T02:34:15.398Z,1.30
2018-09-26T02:36:43.886Z,1.03
2018-09-26T02:39:12.336Z,0.83
2018-09-26T02:41:40.833Z,1.20
2018-09-26T02:44:09.446Z,1.30
2018-09-26T02:46:37.863Z,1.30
2018-09-26T02:49:07.209Z,1.00
2018-09-26T02:51:37.275Z,1.37
2018-09-26T02:54:06.343Z,1.40
2018-09-26T02:56:34.807Z,1.40
2018-09-26T02:59:03.440Z,1.93
2018-09-26T03:01:32.057Z,1.43
2018-09-26T03:04:00.518Z,1.63
2018-09-26T03:06:29.040Z,1.13
2018-09-26T03:08:57.492Z,1.03
2018-09-26T03:11:25.655Z,1.03
2018-09-26T03:13:54.168Z,0.80
2018-09-26T03:16:22.589Z,1.00
2018-09-26T03:18:51.054Z,1.10
2018-09-26T03:21:19.551Z,1.47
2018-09-26T03:23:48.082Z,0.83
2018-09-26T03:26:16.530Z,1.77
2018-09-26T03:28:45.023Z,0.90
2018-09-26T03:31:13.469Z,2.20
2018-09-26T03:33:42.086Z,1.20
2018-09-26T03:36:10.714Z,1.00
2018-09-26T03:38:39.210Z,1.03
2018-09-26T03:41:07.734Z,1.00
2018-09-26T03:43:36.213Z,1.30
2018-09-26T03:46:04.692Z,1.10
2018-09-26T03:48:33.169Z,1.10
2018-09-26T03:51:01.717Z,1.20
2018-09-26T03:53:30.356Z,1.40
2018-09-26T03:55:58.881Z,1.40
2018-09-26T03:58:27.333Z,1.40
2018-09-26T04:00:55.598Z,1.17
2018-09-26T04:03:24.095Z,1.17
2018-09-26T04:05:52.533Z,1.27
2018-09-26T04:08:20.971Z,1.23
2018-09-26T04:10:49.438Z,1.27
2018-09-26T04:13:17.687Z,1.37
2018-09-26T04:15:51.600Z,1.00
2018-09-26T04:18:20.957Z,1.40
2018-09-26T04:20:49.258Z,1.47
2018-09-26T04:23:17.926Z,1.53
2018-09-26T04:25:46.699Z,1.50
2018-09-26T04:28:15.187Z,1.20
2018-09-26T04:30:43.829Z,1.77
2018-09-26T04:33:12.545Z,1.20
2018-09-26T04:35:40.723Z,0.90
2018-09-26T04:38:09.587Z,1.60
2018-09-26T04:40:38.315Z,1.20
2018-09-26T04:43:06.818Z,1.90
2018-09-26T04:45:35.379Z,1.47
2018-09-26T04:48:04.095Z,1.50
2018-09-26T04:50:32.262Z,1.63
2018-09-26T04:53:00.582Z,1.37
2018-09-26T04:55:29.039Z,1.77
2018-09-26T04:57:57.943Z,1.83
2018-09-26T05:00:26.532Z,2.20
2018-09-26T05:02:54.719Z,3.03
2018-09-26T05:05:23.273Z,2.97
2018-09-26T05:07:51.727Z,2.70
2018-09-26T05:10:20.263Z,1.97
2018-09-26T05:12:48.683Z,2.23
2018-09-26T05:15:17.471Z,2.17
2018-09-26T05:17:45.787Z,1.53
2018-09-26T05:20:14.348Z,1.83
2018-09-26T05:22:42.842Z,2.30
2018-09-26T05:25:11.246Z,1.97
2018-09-26T05:27:39.557Z,2.27
2018-09-26T05:30:07.719Z,2.30
2018-09-26T05:32:36.342Z,1.80
2018-09-26T05:35:04.761Z,1.77
2018-09-26T05:37:33.280Z,1.60
2018-09-26T05:40:01.789Z,1.83
2018-09-26T05:42:30.379Z,2.27
2018-09-26T05:44:58.811Z,2.27
2018-09-26T05:47:27.269Z,2.33
2018-09-26T05:49:55.430Z,1.90
2018-09-26T05:52:23.621Z,2.20
2018-09-26T05:54:52.041Z,2.53
2018-09-26T05:57:20.194Z,4.33
2018-09-26T05:59:48.623Z,3.27
2018-09-26T06:02:17.210Z,4.80
2018-09-26T06:04:45.341Z,4.60
2018-09-26T06:07:13.588Z,4.13
2018-09-26T06:09:42.084Z,6.83
2018-09-26T06:12:10.535Z,3.70
2018-09-26T06:14:38.945Z,4.47
2018-09-26T06:17:07.382Z,3.40
2018-09-26T06:19:35.819Z,2.53
2018-09-26T06:22:04.222Z,2.47
2018-09-26T06:24:32.690Z,2.00
2018-09-26T06:27:01.592Z,1.97
2018-09-26T06:29:29.785Z,2.50
2018-09-26T06:31:58.235Z,2.87
2018-09-26T06:34:26.509Z,2.83
2018-09-26T06:36:54.705Z,2.43
2018-09-26T06:39:23.131Z,2.80
2018-09-26T06:41:51.464Z,3.10
2018-09-26T06:44:19.626Z,3.20
2018-09-26T06:46:48.136Z,3.13
2018-09-26T06:49:16.626Z,2.90
2018-09-26T06:51:44.966Z,3.20
2018-09-26T06:54:13.228Z,2.43
2018-09-26T06:56:41.812Z,2.83
2018-09-26T06:59:10.328Z,3.00
2018-09-26T07:01:38.814Z,2.40
2018-09-26T07:04:06.983Z,2.20
2018-09-26T07:06:35.303Z,2.47
2018-09-26T07:09:03.694Z,2.13
2018-09-26T07:11:31.851Z,2.20
2018-09-26T07:14:00.093Z,2.37
2018-09-26T07:16:28.574Z,1.80
2018-09-26T07:18:56.996Z,2.33
2018-09-26T07:21:25.456Z,2.23
2018-09-26T07:23:54.111Z,2.37
2018-09-26T07:26:22.668Z,2.07
2018-09-26T07:28:51.306Z,1.80
2018-09-26T07:31:20.107Z,2.07
2018-09-26T07:33:49.070Z,1.60
2018-09-26T07:36:17.547Z,1.60
2018-09-26T07:38:45.868Z,1.83
2018-09-26T07:41:14.746Z,2.30
2018-09-26T07:43:44.378Z,1.97
2018-09-26T07:46:13.754Z,1.77
2018-09-26T07:48:42.499Z,1.63
2018-09-26T07:51:10.937Z,2.27
2018-09-26T07:53:40.001Z,2.03
2018-09-26T07:56:08.434Z,1.57
2018-09-26T07:58:36.975Z,1.83
2018-09-26T08:01:05.563Z,1.50
2018-09-26T08:03:34.087Z,1.60
2018-09-26T08:06:02.786Z,1.50
2018-09-26T08:08:31.382Z,1.63
2018-09-26T08:11:00.176Z,1.80
2018-09-26T08:13:28.686Z,2.13
2018-09-26T08:15:57.124Z,1.50
2018-09-26T08:18:25.639Z,1.80
2018-09-26T08:20:54.048Z,1.77
2018-09-26T08:23:22.785Z,1.67
2018-09-26T08:25:51.215Z,1.90
2018-09-26T08:28:19.664Z,2.43
2018-09-26T08:30:48.337Z,1.60
2018-09-26T08:33:16.806Z,1.40
2018-09-26T08:35:45.261Z,1.40
2018-09-26T08:38:13.740Z,1.77
2018-09-26T08:40:42.356Z,1.80
2018-09-26T08:43:10.839Z,1.70
2018-09-26T08:45:39.300Z,1.70
2018-09-26T08:48:07.902Z,1.57
2018-09-26T08:50:36.343Z,1.90
2018-09-26T08:53:04.815Z,1.50
2018-09-26T08:55:33.231Z,1.80
2018-09-26T08:58:01.684Z,1.37
2018-09-26T09:00:34.877Z,1.30
2018-09-26T09:03:04.479Z,1.57
2018-09-26T09:05:32.913Z,1.90
2018-09-26T09:08:01.787Z,1.60
2018-09-26T09:10:30.252Z,2.73
2018-09-26T09:12:58.935Z,1.47
2018-09-26T09:15:28.339Z,1.87
2018-09-26T09:17:56.861Z,1.57
2018-09-26T09:20:25.483Z,1.50
2018-09-26T09:22:54.018Z,1.50
2018-09-26T09:25:22.540Z,2.00
2018-09-26T09:27:50.968Z,1.83
2018-09-26T09:30:19.383Z,1.53
2018-09-26T09:32:48.007Z,1.60
2018-09-26T09:35:16.669Z,1.60
2018-09-26T09:37:45.105Z,1.30
2018-09-26T09:40:13.647Z,1.90
2018-09-26T09:42:42.146Z,1.40
2018-09-26T09:45:10.630Z,1.50
2018-09-26T09:47:39.197Z,1.13
2018-09-26T09:50:07.811Z,2.03
2018-09-26T09:52:36.434Z,1.53
2018-09-26T09:55:05.270Z,1.80
2018-09-26T09:57:33.714Z,1.83
2018-09-26T10:00:02.209Z,1.30
2018-09-26T10:02:30.711Z,1.33
2018-09-26T10:04:59.362Z,1.70
2018-09-26T10:07:27.820Z,1.80
2018-09-26T10:09:56.432Z,1.53
2018-09-26T10:12:24.912Z,1.60
2018-09-26T10:14:53.391Z,1.30
2018-09-26T10:17:21.950Z,1.70
2018-09-26T10:19:50.625Z,1.67
2018-09-26T10:22:19.059Z,1.50
2018-09-26T10:24:47.570Z,1.27
2018-09-26T10:27:16.196Z,1.57
2018-09-26T10:29:44.672Z,1.47
2018-09-26T10:32:13.133Z,3.33
2018-09-26T10:34:41.844Z,2.37
2018-09-26T10:37:10.434Z,2.00
2018-09-26T10:39:38.945Z,2.50
2018-09-26T10:42:07.755Z,2.20
2018-09-26T10:44:36.367Z,1.87
2018-09-26T10:47:04.823Z,2.00
2018-09-26T10:49:33.331Z,1.80
2018-09-26T10:52:01.761Z,1.50
2018-09-26T10:54:30.203Z,3.07
2018-09-26T10:56:58.714Z,2.67
2018-09-26T10:59:27.132Z,4.80
2018-09-26T11:01:55.742Z,2.27
2018-09-26T11:04:24.717Z,2.10
2018-09-26T11:06:53.304Z,1.90
2018-09-26T11:09:21.762Z,2.83
2018-09-26T11:11:50.431Z,10.80
2018-09-26T11:14:18.887Z,4.20
2018-09-26T11:16:47.532Z,4.57
2018-09-26T11:19:16.031Z,3.20
2018-09-26T11:21:44.660Z,2.40
2018-09-26T11:24:13.127Z,2.10
2018-09-26T11:26:41.628Z,3.00
2018-09-26T11:29:10.175Z,3.07
2018-09-26T11:31:38.630Z,3.80
2018-09-26T11:34:07.182Z,3.83
2018-09-26T11:36:35.817Z,2.40
2018-09-26T11:39:05.366Z,2.70
2018-09-26T11:41:34.149Z,3.67
2018-09-26T11:44:02.634Z,4.10
2018-09-26T11:46:31.089Z,2.70
2018-09-26T11:48:59.518Z,3.70
2018-09-26T11:51:28.090Z,4.17
2018-09-26T11:53:56.608Z,2.20
2018-09-26T11:56:24.868Z,2.00
2018-09-26T11:58:53.483Z,2.77
2018-09-26T12:01:22.047Z,2.00
2018-09-26T12:03:50.721Z,1.70
2018-09-26T12:06:19.217Z,2.60
2018-09-26T12:08:49.235Z,2.30
2018-09-26T12:11:17.667Z,2.40
2018-09-26T12:13:46.159Z,2.63
2018-09-26T12:16:14.896Z,4.40
2018-09-26T12:18:43.456Z,2.60
2018-09-26T12:21:11.878Z,14.87
2018-09-26T12:23:40.374Z,1.97
2018-09-26T12:26:08.836Z,2.13
2018-09-26T12:28:37.287Z,2.27
2018-09-26T12:31:05.827Z,6.07
2018-09-26T12:33:34.351Z,11.77
2018-09-26T12:36:03.367Z,15.63
2018-09-26T12:38:31.852Z,8.60
2018-09-26T12:41:00.267Z,6.53
2018-09-26T12:43:28.747Z,3.70
2018-09-26T12:45:57.470Z,6.07
2018-09-26T12:48:25.998Z,7.47
2018-09-26T12:50:54.504Z,3.13
2018-09-26T12:53:23.038Z,4.67
2018-09-26T12:55:51.612Z,3.10
2018-09-26T12:58:20.238Z,4.50
2018-09-26T13:00:48.855Z,3.80
2018-09-26T13:03:17.506Z,5.03
2018-09-26T13:05:45.944Z,3.23
2018-09-26T13:08:14.484Z,3.50
2018-09-26T13:10:43.055Z,2.03
2018-09-26T13:13:11.521Z,2.73
2018-09-26T13:15:40.019Z,2.73
2018-09-26T13:18:08.561Z,2.33
2018-09-26T13:20:37.598Z,2.43
2018-09-26T13:23:06.179Z,3.73
2018-09-26T13:25:34.846Z,3.60
2018-09-26T13:28:03.336Z,1.90
2018-09-26T13:30:31.795Z,2.60
2018-09-26T13:33:00.522Z,2.20
2018-09-26T13:35:29.040Z,1.60
2018-09-26T13:37:57.492Z,2.00
2018-09-26T13:40:26.617Z,3.50
2018-09-26T13:42:55.141Z,1.50
2018-09-26T13:45:23.649Z,2.77
2018-09-26T13:47:52.409Z,1.90
2018-09-26T13:50:21.105Z,2.07
2018-09-26T13:52:49.700Z,1.70
2018-09-26T13:55:17.974Z,1.70
2018-09-26T13:57:46.740Z,1.90
2018-09-26T14:00:17.302Z,1.60
2018-09-26T14:02:47.140Z,1.75
2018-09-26T14:05:16.326Z,1.90
2018-09-26T14:07:45.326Z,2.65
2018-09-26T14:10:14.364Z,3.75
2018-09-26T14:12:43.411Z,9.98
2018-09-26T14:15:12.398Z,5.20
2018-09-26T14:17:41.422Z,6.35
2018-09-26T14:20:10.480Z,10.60
2018-09-26T14:22:39.732Z,4.75
2018-09-26T14:25:08.840Z,5.45
2018-09-26T14:27:37.924Z,1.77
2018-09-26T14:30:07.343Z,1.87
2018-09-26T14:32:36.506Z,2.75
2018-09-26T14:35:05.583Z,2.40
2018-09-26T14:37:34.842Z,8.38
2018-09-26T14:40:03.835Z,8.10
2018-09-26T14:42:32.925Z,8.33
2018-09-26T14:45:02.072Z,2.92
2018-09-26T14:47:30.998Z,6.10
2018-09-26T14:49:59.745Z,2.60
2018-09-26T14:52:28.445Z,3.17
2018-09-26T14:54:57.483Z,4.95
2018-09-26T14:57:26.335Z,6.50
2018-09-26T14:59:55.385Z,6.55
2018-09-26T15:02:24.478Z,5.03
2018-09-26T15:04:53.618Z,2.80
2018-09-26T15:07:22.302Z,2.92
2018-09-26T15:09:51.010Z,3.50
2018-09-26T15:12:19.762Z,2.42
2018-09-26T15:14:48.665Z,3.55
2018-09-26T15:17:17.664Z,3.58
2018-09-26T15:19:46.659Z,3.75
2018-09-26T15:22:15.375Z,3.60
2018-09-26T15:24:44.562Z,3.22
2018-09-26T15:27:13.515Z,2.77
2018-09-26T15:29:42.686Z,3.37
2018-09-26T15:32:11.765Z,2.80
2018-09-26T15:34:40.961Z,3.10
2018-09-26T15:37:10.030Z,3.08
2018-09-26T15:39:38.754Z,2.83
2018-09-26T15:42:07.765Z,2.95
2018-09-26T15:44:36.970Z,2.17
2018-09-26T15:47:05.104Z,3.07
2018-09-26T15:49:33.234Z,3.80
2018-09-26T15:52:01.360Z,5.17
2018-09-26T15:54:29.866Z,3.20
2018-09-26T15:56:57.983Z,3.80
2018-09-26T15:59:26.085Z,3.03
2018-09-26T16:01:54.500Z,3.23
2018-09-26T16:04:24.808Z,3.33
2018-09-26T16:06:53.352Z,4.00
2018-09-26T16:09:21.801Z,3.33
2018-09-26T16:11:50.007Z,3.80
2018-09-26T16:14:18.549Z,4.77
2018-09-26T16:16:47.251Z,3.43
2018-09-26T16:19:15.769Z,3.50
2018-09-26T16:21:44.418Z,2.53
2018-09-26T16:24:12.917Z,3.40
2018-09-26T16:26:41.573Z,3.33
2018-09-26T16:29:10.102Z,2.80
2018-09-26T16:31:38.595Z,3.50
2018-09-26T16:34:07.309Z,2.47
2018-09-26T16:36:35.924Z,3.70
2018-09-26T16:39:06.462Z,3.63
2018-09-26T16:41:35.109Z,4.17
2018-09-26T16:44:03.552Z,5.20
2018-09-26T16:46:32.000Z,3.97
2018-09-26T16:49:00.451Z,3.60
2018-09-26T16:51:29.028Z,3.83
2018-09-26T16:53:57.485Z,5.07
2018-09-26T16:56:25.962Z,5.73
2018-09-26T16:58:54.409Z,6.27
2018-09-26T17:01:22.932Z,16.97
2018-09-26T17:03:51.382Z,11.63
2018-09-26T17:06:19.830Z,6.03
2018-09-26T17:08:48.455Z,10.57
2018-09-26T17:11:16.929Z,9.37
2018-09-26T17:13:46.556Z,7.40
2018-09-26T17:16:17.580Z,6.13
2018-09-26T17:18:46.143Z,6.20
2018-09-26T17:21:14.586Z,6.80
2018-09-26T17:23:43.136Z,5.90
2018-09-26T17:26:11.592Z,5.30
2018-09-26T17:28:44.074Z,5.20
2018-09-26T17:31:17.344Z,4.17
2018-09-26T17:33:46.960Z,6.03
2018-09-26T17:36:16.504Z,5.53
2018-09-26T17:38:45.114Z,4.40
2018-09-26T17:41:13.622Z,4.10
2018-09-26T17:43:42.040Z,4.27
2018-09-26T17:46:10.479Z,5.40
2018-09-26T17:48:38.980Z,4.80
2018-09-26T17:51:07.524Z,5.20
2018-09-26T17:53:35.847Z,12.57
2018-09-26T17:56:04.299Z,8.50
2018-09-26T17:58:32.956Z,6.97
2018-09-26T18:01:01.416Z,5.17
2018-09-26T18:03:29.873Z,4.83
2018-09-26T18:05:58.287Z,4.30
2018-09-26T18:08:26.974Z,3.97
2018-09-26T18:10:55.389Z,4.80
2018-09-26T18:13:23.680Z,4.67
2018-09-26T18:15:57.945Z,4.13
2018-09-26T18:18:26.412Z,4.10
2018-09-26T18:20:54.689Z,4.23
2018-09-26T18:23:23.953Z,4.23
2018-09-26T18:25:52.271Z,4.40
2018-09-26T18:28:20.760Z,8.00
2018-09-26T18:30:49.175Z,15.03
2018-09-26T18:33:17.848Z,25.80
2018-09-26T18:35:46.713Z,27.90
2018-09-26T18:38:14.918Z,20.17
2018-09-26T18:40:43.590Z,20.23
2018-09-26T18:43:12.172Z,12.30
2018-09-26T18:45:40.717Z,11.13
2018-09-26T18:48:08.961Z,9.10
2018-09-26T18:50:37.518Z,7.60
2018-09-26T18:53:06.199Z,7.27
2018-09-26T18:55:34.809Z,7.10
2018-09-26T18:58:03.015Z,6.53
2018-09-26T19:00:31.170Z,11.60
2018-09-26T19:02:59.666Z,10.90
2018-09-26T19:05:28.278Z,6.20
2018-09-26T19:07:56.752Z,5.57
2018-09-26T19:10:25.182Z,5.03
2018-09-26T19:12:53.376Z,4.90
2018-09-26T19:15:21.840Z,5.30
2018-09-26T19:17:50.001Z,8.53
2018-09-26T19:20:18.485Z,19.73
2018-09-26T19:22:46.953Z,11.17
2018-09-26T19:25:15.463Z,5.30
2018-09-26T19:27:43.895Z,5.03
2018-09-26T19:30:12.482Z,5.00
2018-09-26T19:32:40.888Z,5.63
2018-09-26T19:35:09.160Z,4.80
2018-09-26T19:37:37.586Z,5.33
2018-09-26T19:40:06.066Z,5.30
2018-09-26T19:42:34.532Z,9.10
2018-09-26T19:45:03.071Z,11.27
2018-09-26T19:47:31.399Z,7.10
2018-09-26T19:49:59.539Z,4.60
2018-09-26T19:52:27.751Z,4.70
2018-09-26T19:54:56.321Z,5.57
2018-09-26T19:57:24.451Z,6.50
2018-09-26T19:59:52.598Z,5.60
2018-09-26T20:02:20.742Z,9.47
2018-09-26T20:04:49.221Z,9.13
2018-09-26T20:07:17.347Z,8.73
2018-09-26T20:09:45.513Z,8.70
2018-09-26T20:12:13.633Z,8.70
2018-09-26T20:14:41.787Z,7.50
2018-09-26T20:17:09.937Z,7.43
2018-09-26T20:19:38.451Z,6.60
2018-09-26T20:22:07.119Z,7.80
2018-09-26T20:24:35.433Z,6.13
2018-09-26T20:27:03.975Z,6.70
2018-09-26T20:29:32.686Z,5.90
2018-09-26T20:32:00.890Z,6.13
2018-09-26T20:34:29.384Z,6.80
2018-09-26T20:36:57.845Z,7.17
2018-09-26T20:39:26.415Z,10.80
2018-09-26T20:41:54.856Z,8.27
2018-09-26T20:44:23.399Z,7.57
2018-09-26T20:46:51.871Z,8.20
2018-09-26T20:49:20.526Z,6.27
2018-09-26T20:51:49.037Z,5.73
2018-09-26T20:54:17.638Z,5.70
2018-09-26T20:56:46.092Z,5.60
2018-09-26T20:59:14.553Z,5.97
2018-09-26T21:01:43.167Z,5.63
2018-09-26T21:04:11.811Z,5.83
2018-09-26T21:06:40.269Z,6.20
2018-09-26T21:09:09.958Z,5.30
2018-09-26T21:11:38.481Z,20.37
2018-09-26T21:14:07.627Z,13.67
2018-09-26T21:16:36.142Z,7.33
2018-09-26T21:19:04.613Z,5.80
2018-09-26T21:21:33.094Z,6.17
2018-09-26T21:24:01.564Z,5.30
2018-09-26T21:26:29.767Z,5.23
2018-09-26T21:28:58.200Z,5.20
2018-09-26T21:31:26.640Z,5.57
2018-09-26T21:33:55.087Z,5.03
2018-09-26T21:36:23.523Z,4.83
2018-09-26T21:38:52.033Z,5.50
2018-09-26T21:41:20.881Z,5.17
2018-09-26T21:43:49.371Z,5.30
2018-09-26T21:46:17.878Z,4.80
2018-09-26T21:48:46.319Z,4.83
2018-09-26T21:51:14.786Z,4.87
2018-09-26T21:53:43.443Z,5.40
2018-09-26T21:56:11.921Z,4.80
2018-09-26T21:58:40.432Z,5.57
2018-09-26T22:01:13.128Z,4.97
2018-09-26T22:03:41.972Z,4.97
2018-09-26T22:06:10.683Z,4.97
2018-09-26T22:08:39.825Z,5.20
2018-09-26T22:11:08.637Z,5.03
2018-09-26T22:13:37.480Z,4.83
2018-09-26T22:16:06.007Z,5.00
2018-09-26T22:18:34.516Z,5.40
2018-09-26T22:21:02.969Z,5.33
2018-09-26T22:23:31.532Z,4.87
2018-09-26T22:26:00.080Z,4.73
2018-09-26T22:28:28.593Z,5.27
2018-09-26T22:30:57.184Z,4.67
2018-09-26T22:33:25.606Z,4.87
2018-09-26T22:35:54.056Z,5.27
2018-09-26T22:38:22.472Z,4.37
2018-09-26T22:40:50.914Z,4.60
2018-09-26T22:43:19.629Z,5.10
2018-09-26T22:45:48.209Z,4.67
2018-09-26T22:48:16.712Z,4.70
2018-09-26T22:50:45.275Z,4.83
2018-09-26T22:53:13.770Z,4.67
2018-09-26T22:55:45.420Z,4.63
2018-09-26T22:58:14.073Z,4.73
2018-09-26T23:00:42.711Z,4.63
2018-09-26T23:03:11.154Z,4.60
2018-09-26T23:05:39.907Z,4.07
2018-09-26T23:08:09.475Z,4.30
2018-09-26T23:10:40.519Z,3.83
2018-09-26T23:13:09.205Z,3.90
2018-09-26T23:15:37.659Z,3.93
2018-09-26T23:18:06.165Z,3.97
2018-09-26T23:20:34.643Z,4.30
2018-09-26T23:23:03.149Z,3.37
2018-09-26T23:25:31.626Z,3.93
2018-09-26T23:28:00.803Z,3.60
2018-09-26T23:30:29.250Z,4.37
2018-09-26T23:32:57.706Z,3.90
2018-09-26T23:35:26.101Z,3.60
2018-09-26T23:37:54.557Z,3.50
2018-09-26T23:40:22.984Z,3.67
2018-09-26T23:42:51.479Z,3.40
2018-09-26T23:45:19.963Z,2.93
2018-09-26T23:47:48.451Z,3.27
2018-09-26T23:50:16.915Z,3.37
2018-09-26T23:52:45.423Z,3.13
2018-09-26T23:55:13.885Z,3.10
2018-09-26T23:57:42.348Z,3.50
